Time;durP1;ratioP1;P1;durP2;ratioP2;P2;SDS_P1;SDS_P2;PMS_P1;PMS_P2;Temp;Humidity;BMP_temperature;BMP_pressure;BME280_temperature;BME280_humidity;BME280_pressure;Samples;Min_cycle;Max_cycle;Signal;HPM_P1;HPM_P2
2020/12/30 00:01:38;;;;;;;6.85;3.98;;;1.30;99.90;;;;;;1968486;70;21071;-74
2020/12/30 00:04:04;;;;;;;10.38;4.35;;;1.30;99.90;;;;;;1968337;71;21121;-75
2020/12/30 00:06:31;;;;;;;6.42;4.12;;;1.30;99.90;;;;;;1948959;70;21067;-74
2020/12/30 00:08:57;;;;;;;7.45;3.98;;;1.30;99.90;;;;;;1958491;70;21062;-74
2020/12/30 00:11:23;;;;;;;6.42;3.67;;;1.30;99.90;;;;;;1956791;71;21152;-75
2020/12/30 00:13:49;;;;;;;5.62;3.55;;;1.40;99.90;;;;;;1953516;72;21528;-72
2020/12/30 00:16:15;;;;;;;4.62;3.80;;;1.30;99.90;;;;;;1966103;71;21458;-74
2020/12/30 00:18:41;;;;;;;6.72;4.12;;;1.40;99.90;;;;;;1965202;70;21506;-74
2020/12/30 00:21:07;;;;;;;9.20;3.65;;;1.50;99.90;;;;;;1952527;71;21176;-73
2020/12/30 00:23:33;;;;;;;6.10;4.17;;;1.50;99.90;;;;;;1951827;70;21047;-73
2020/12/30 00:25:59;;;;;;;8.63;4.53;;;1.40;99.90;;;;;;1957959;70;21072;-74
2020/12/30 00:28:26;;;;;;;8.88;3.90;;;1.40;99.90;;;;;;1954995;71;21140;-73
2020/12/30 00:30:52;;;;;;;5.65;3.87;;;1.30;99.90;;;;;;1958416;70;21066;-73
2020/12/30 00:33:18;;;;;;;6.60;3.95;;;1.30;99.90;;;;;;1958917;70;21196;-74
2020/12/30 00:35:44;;;;;;;8.43;3.30;;;1.40;99.90;;;;;;1952628;71;21116;-74
2020/12/30 00:38:10;;;;;;;6.05;3.98;;;1.40;99.90;;;;;;1940558;70;21079;-74
2020/12/30 00:40:36;;;;;;;7.97;3.92;;;1.30;99.90;;;;;;1959910;71;21040;-74
2020/12/30 00:43:02;;;;;;;8.10;4.03;;;1.30;99.90;;;;;;1963660;71;21054;-74
2020/12/30 00:45:28;;;;;;;9.65;4.35;;;1.30;99.90;;;;;;1947177;71;21224;-75
2020/12/30 00:47:55;;;;;;;6.70;3.37;;;1.30;99.90;;;;;;1966098;71;21469;-72
2020/12/30 00:50:21;;;;;;;5.50;3.58;;;1.40;99.90;;;;;;1956353;71;21561;-73
2020/12/30 00:52:47;;;;;;;7.15;4.08;;;1.40;99.90;;;;;;1960183;71;21498;-75
2020/12/30 00:55:13;;;;;;;8.70;4.15;;;1.40;99.90;;;;;;1954123;71;21070;-75
2020/12/30 00:57:39;;;;;;;8.78;3.45;;;1.30;99.90;;;;;;1966272;70;21028;-75
2020/12/30 01:00:05;;;;;;;5.87;3.70;;;1.30;99.90;;;;;;1960122;71;21036;-74
2020/12/30 01:02:31;;;;;;;5.78;3.47;;;1.30;99.90;;;;;;1958213;72;21090;-73
2020/12/30 01:04:57;;;;;;;8.38;3.87;;;1.30;99.90;;;;;;1969278;71;21062;-72
2020/12/30 01:07:24;;;;;;;6.15;3.67;;;1.30;99.90;;;;;;1953232;72;21128;-72
2020/12/30 01:09:51;;;;;;;5.12;3.40;;;1.30;99.90;;;;;;1972272;71;21071;-72
2020/12/30 01:12:17;;;;;;;10.35;3.47;;;1.40;99.90;;;;;;1964591;71;21114;-73
2020/12/30 01:14:43;;;;;;;5.85;3.83;;;1.40;99.90;;;;;;1947951;71;21057;-74
2020/12/30 01:17:09;;;;;;;4.80;3.08;;;1.40;99.90;;;;;;1959656;70;21051;-74
2020/12/30 01:19:35;;;;;;;7.05;3.45;;;1.40;99.90;;;;;;1951200;71;21040;-73
2020/12/30 01:22:03;;;;;;;5.25;3.55;;;1.50;99.90;;;;;;1940712;71;21055;-74
2020/12/30 01:24:29;;;;;;;6.47;3.08;;;1.50;99.90;;;;;;1960720;71;21049;-73
2020/12/30 01:26:56;;;;;;;4.30;3.10;;;1.50;99.90;;;;;;1963607;71;21196;-72
2020/12/30 01:29:22;;;;;;;5.08;3.08;;;1.50;99.90;;;;;;1964476;70;21086;-72
2020/12/30 01:31:48;;;;;;;6.45;3.95;;;1.40;99.90;;;;;;1958277;71;21074;-73
2020/12/30 01:34:14;;;;;;;3.85;3.05;;;1.30;99.90;;;;;;1954365;70;21467;-73
2020/12/30 01:36:40;;;;;;;4.60;2.92;;;1.30;99.90;;;;;;1949982;70;21588;-73
2020/12/30 01:39:07;;;;;;;5.65;3.52;;;1.50;99.90;;;;;;1958596;71;21486;-74
2020/12/30 01:41:33;;;;;;;7.08;3.15;;;1.50;99.90;;;;;;1978342;70;21062;-72
2020/12/30 01:43:59;;;;;;;6.03;3.47;;;1.60;99.90;;;;;;1951920;71;21131;-72
2020/12/30 01:46:25;;;;;;;8.15;3.75;;;1.50;99.90;;;;;;1962793;71;21062;-72
2020/12/30 01:48:51;;;;;;;4.08;2.70;;;1.40;99.90;;;;;;1961297;72;21053;-75
2020/12/30 01:51:17;;;;;;;3.37;2.90;;;1.40;99.90;;;;;;1985479;70;21050;-74
2020/12/30 01:53:43;;;;;;;6.35;3.47;;;1.50;99.90;;;;;;1986002;72;21046;-74
2020/12/30 01:56:09;;;;;;;5.50;2.75;;;1.40;99.90;;;;;;1993928;72;21054;-73
2020/12/30 01:58:35;;;;;;;4.17;2.90;;;1.40;99.90;;;;;;1993142;70;21014;-71
2020/12/30 02:01:02;;;;;;;4.75;3.27;;;1.40;99.90;;;;;;1994669;71;21070;-72
2020/12/30 02:03:28;;;;;;;6.67;3.22;;;1.50;99.90;;;;;;1992104;71;21111;-74
2020/12/30 02:05:57;;;;;;;5.25;2.77;;;1.50;99.90;;;;;;1988151;71;21062;-73
2020/12/30 02:08:22;;;;;;;6.83;3.30;;;1.40;99.90;;;;;;1988397;71;21053;-72
2020/12/30 02:10:48;;;;;;;5.10;2.85;;;1.40;99.90;;;;;;1982295;71;21139;-74
2020/12/30 02:13:14;;;;;;;3.85;2.85;;;1.50;99.90;;;;;;1985521;71;21050;-73
2020/12/30 02:15:40;;;;;;;6.20;2.85;;;1.60;99.90;;;;;;1960021;71;21044;-73
2020/12/30 02:18:06;;;;;;;4.37;2.83;;;1.50;99.90;;;;;;1963375;71;21494;-74
2020/12/30 02:20:32;;;;;;;4.55;2.50;;;1.50;99.90;;;;;;1959715;71;21529;-73
2020/12/30 02:22:58;;;;;;;6.00;3.07;;;1.60;99.90;;;;;;1964296;72;21618;-72
2020/12/30 02:25:24;;;;;;;7.30;3.10;;;1.60;99.90;;;;;;1956799;72;21557;-73
2020/12/30 02:27:54;;;;;;;4.30;3.00;;;1.60;99.90;;;;;;1963665;72;21139;-74
2020/12/30 02:30:20;;;;;;;4.75;3.22;;;1.70;99.90;;;;;;1958223;72;21072;-72
2020/12/30 02:32:46;;;;;;;6.03;2.45;;;1.70;99.90;;;;;;1955197;72;21026;-74
2020/12/30 02:35:12;;;;;;;3.67;2.87;;;1.60;99.90;;;;;;1966773;72;21428;-73
2020/12/30 02:37:38;;;;;;;7.50;2.85;;;1.70;99.90;;;;;;1958674;72;21084;-74
2020/12/30 02:40:04;;;;;;;8.23;3.67;;;1.70;99.90;;;;;;1959515;72;21054;-73
2020/12/30 02:42:30;;;;;;;3.15;2.52;;;1.80;99.90;;;;;;1949306;71;21076;-75
2020/12/30 02:44:57;;;;;;;2.58;2.37;;;1.80;99.90;;;;;;1972120;71;21133;-74
2020/12/30 02:47:23;;;;;;;4.45;2.67;;;1.80;99.90;;;;;;1975268;71;21063;-74
2020/12/30 02:49:49;;;;;;;5.65;3.22;;;1.70;99.90;;;;;;1958990;72;21112;-72
2020/12/30 02:52:15;;;;;;;6.60;3.08;;;1.70;99.90;;;;;;1960456;72;21150;-74
2020/12/30 02:54:41;;;;;;;4.62;2.92;;;1.60;99.90;;;;;;1970131;71;21125;-74
2020/12/30 02:57:07;;;;;;;4.40;3.27;;;1.60;99.90;;;;;;1951369;72;21036;-74
2020/12/30 02:59:33;;;;;;;6.28;3.10;;;1.60;99.90;;;;;;1938600;72;21145;-74
2020/12/30 03:01:59;;;;;;;4.08;2.92;;;1.70;99.90;;;;;;1986883;70;21141;-74
2020/12/30 03:04:25;;;;;;;5.05;3.10;;;1.60;99.90;;;;;;1988038;71;21058;-74
2020/12/30 03:06:52;;;;;;;4.17;2.60;;;1.60;99.90;;;;;;1990654;71;21071;-74
2020/12/30 03:09:18;;;;;;;7.92;3.40;;;1.60;99.90;;;;;;1990392;71;21086;-74
2020/12/30 03:11:44;;;;;;;6.05;3.33;;;1.60;99.90;;;;;;1989183;71;21474;-74
2020/12/30 03:14:10;;;;;;;6.03;3.10;;;1.60;99.90;;;;;;1992738;70;21415;-72
2020/12/30 03:16:36;;;;;;;6.58;3.10;;;1.70;99.90;;;;;;1987969;71;21510;-72
2020/12/30 03:19:02;;;;;;;7.03;3.70;;;1.60;99.90;;;;;;1986085;71;21055;-73
2020/12/30 03:21:28;;;;;;;5.60;3.72;;;1.60;99.90;;;;;;1983306;72;21042;-72
2020/12/30 03:23:54;;;;;;;4.65;3.20;;;1.60;99.90;;;;;;1991793;71;21119;-72
2020/12/30 03:26:20;;;;;;;6.85;2.87;;;1.50;99.90;;;;;;1987718;71;21140;-73
2020/12/30 03:28:47;;;;;;;8.25;3.60;;;1.50;99.90;;;;;;1987982;72;21250;-74
2020/12/30 03:31:13;;;;;;;5.80;3.27;;;1.50;99.90;;;;;;1992793;72;21028;-74
2020/12/30 03:33:39;;;;;;;3.47;3.15;;;1.50;99.90;;;;;;1992751;71;21128;-74
2020/12/30 03:36:05;;;;;;;5.97;3.45;;;1.40;99.90;;;;;;1991010;70;21173;-72
2020/12/30 03:38:31;;;;;;;4.85;3.27;;;1.50;99.90;;;;;;1988738;70;21181;-72
2020/12/30 03:40:57;;;;;;;4.20;2.75;;;1.50;99.90;;;;;;1988459;70;21101;-73
2020/12/30 03:43:23;;;;;;;4.10;2.67;;;1.40;99.90;;;;;;1990050;72;21127;-74
2020/12/30 03:45:49;;;;;;;3.98;2.77;;;1.40;99.90;;;;;;1983316;70;21458;-72
2020/12/30 03:48:16;;;;;;;4.47;2.47;;;1.40;99.90;;;;;;1993687;71;21483;-72
2020/12/30 03:50:42;;;;;;;4.53;3.35;;;1.40;99.90;;;;;;1981408;70;21454;-74
2020/12/30 03:53:08;;;;;;;3.52;2.17;;;1.40;99.90;;;;;;1987732;72;21054;-73
2020/12/30 03:55:34;;;;;;;2.65;1.98;;;1.50;99.90;;;;;;1988128;71;21166;-74
2020/12/30 03:58:00;;;;;;;3.42;2.60;;;1.50;99.90;;;;;;1989749;71;21049;-73
2020/12/30 04:00:26;;;;;;;3.77;2.45;;;1.60;99.90;;;;;;1979965;71;21063;-74
2020/12/30 04:02:52;;;;;;;4.00;2.40;;;1.50;99.90;;;;;;1988331;71;21132;-73
2020/12/30 04:05:18;;;;;;;4.10;2.50;;;1.40;99.90;;;;;;1992950;71;21116;-72
2020/12/30 04:07:45;;;;;;;4.85;2.87;;;1.30;99.90;;;;;;1977855;72;21031;-73
2020/12/30 04:10:11;;;;;;;6.25;3.08;;;1.40;99.90;;;;;;1984839;71;21466;-73
2020/12/30 04:12:37;;;;;;;2.98;2.22;;;1.30;99.90;;;;;;1924840;73;21134;-72
2020/12/30 04:15:03;;;;;;;9.68;2.83;;;1.20;99.90;;;;;;1981354;71;21131;-74
2020/12/30 04:17:29;;;;;;;5.30;2.87;;;1.20;99.90;;;;;;1966834;71;21065;-72
2020/12/30 04:19:55;;;;;;;3.40;2.27;;;1.00;99.90;;;;;;1953607;71;21128;-72
2020/12/30 04:22:22;;;;;;;5.53;2.85;;;1.10;99.90;;;;;;1971721;70;21062;-72
2020/12/30 04:24:48;;;;;;;4.40;3.10;;;1.10;99.90;;;;;;1939432;71;21102;-73
2020/12/30 04:27:14;;;;;;;3.72;2.70;;;1.00;99.90;;;;;;1954367;72;21043;-74
2020/12/30 04:29:40;;;;;;;6.65;3.20;;;0.90;99.90;;;;;;1948308;72;21047;-74
2020/12/30 04:32:06;;;;;;;4.45;3.22;;;0.90;99.90;;;;;;1959528;71;21070;-74
2020/12/30 04:34:32;;;;;;;4.53;2.72;;;0.90;99.90;;;;;;1952248;71;21067;-72
2020/12/30 04:36:58;;;;;;;5.65;2.65;;;0.90;99.90;;;;;;1964044;71;21196;-74
2020/12/30 04:39:24;;;;;;;3.25;2.33;;;0.80;99.90;;;;;;1964372;71;21549;-74
2020/12/30 04:41:51;;;;;;;3.70;2.33;;;0.70;99.90;;;;;;1963931;70;21451;-73
2020/12/30 04:44:17;;;;;;;6.42;3.22;;;0.70;99.90;;;;;;1964017;71;21497;-72
2020/12/30 04:46:43;;;;;;;2.47;2.20;;;0.60;99.90;;;;;;1962698;71;21158;-72
2020/12/30 04:49:09;;;;;;;3.42;2.50;;;0.40;99.90;;;;;;1968999;71;21114;-74
2020/12/30 04:51:35;;;;;;;3.12;2.08;;;0.60;99.90;;;;;;1954027;71;21149;-74
2020/12/30 04:54:02;;;;;;;3.33;2.60;;;0.50;99.90;;;;;;1958079;71;21089;-74
2020/12/30 04:56:28;;;;;;;5.22;2.52;;;0.50;99.90;;;;;;1965759;71;21071;-74
2020/12/30 04:58:54;;;;;;;5.33;2.95;;;0.50;99.90;;;;;;1958441;71;21078;-74
2020/12/30 05:01:20;;;;;;;3.80;2.75;;;0.50;99.90;;;;;;1944245;71;21513;-73
2020/12/30 05:03:46;;;;;;;4.12;2.77;;;0.50;99.90;;;;;;1961966;72;21486;-72
2020/12/30 05:06:12;;;;;;;2.42;2.05;;;0.40;99.90;;;;;;1961368;70;21128;-74
2020/12/30 05:08:38;;;;;;;3.17;2.50;;;0.50;99.90;;;;;;1968352;71;21079;-74
2020/12/30 05:11:04;;;;;;;4.60;3.00;;;0.50;99.90;;;;;;1980020;70;21075;-74
2020/12/30 05:13:31;;;;;;;3.92;2.77;;;0.50;99.90;;;;;;1965851;71;21141;-74
2020/12/30 05:15:57;;;;;;;6.90;2.98;;;0.50;99.90;;;;;;1974740;70;21066;-73
2020/12/30 05:18:23;;;;;;;3.92;2.60;;;0.40;99.90;;;;;;1957704;70;21065;-73
2020/12/30 05:20:49;;;;;;;5.67;2.83;;;0.40;99.90;;;;;;1959452;72;21074;-73
2020/12/30 05:23:15;;;;;;;7.35;3.00;;;0.40;99.90;;;;;;1957617;70;21074;-72
2020/12/30 05:25:41;;;;;;;5.12;2.90;;;0.30;99.90;;;;;;1961406;72;21491;-72
2020/12/30 05:28:07;;;;;;;7.85;2.85;;;0.40;99.90;;;;;;1953473;71;21479;-73
2020/12/30 05:30:33;;;;;;;11.25;2.70;;;0.30;99.90;;;;;;1945277;71;21070;-72
2020/12/30 05:33:00;;;;;;;4.00;2.37;;;0.30;99.90;;;;;;1941173;71;21149;-73
2020/12/30 05:35:26;;;;;;;3.65;2.60;;;0.40;99.90;;;;;;1962825;72;21066;-73
2020/12/30 05:37:52;;;;;;;9.40;2.65;;;0.30;99.90;;;;;;1954606;70;21235;-72
2020/12/30 05:40:18;;;;;;;5.55;2.70;;;0.40;99.90;;;;;;1933359;72;21075;-73
2020/12/30 05:42:45;;;;;;;12.98;3.87;;;0.40;99.90;;;;;;1956049;70;21124;-73
2020/12/30 05:45:11;;;;;;;11.48;4.72;;;0.40;99.90;;;;;;1949381;71;21177;-73
2020/12/30 05:47:37;;;;;;;7.12;3.35;;;0.50;99.90;;;;;;1959412;71;21195;-73
2020/12/30 05:50:04;;;;;;;12.07;3.95;;;0.50;99.90;;;;;;1953324;70;21051;-73
2020/12/30 05:52:30;;;;;;;3.60;2.72;;;0.60;99.90;;;;;;1958192;70;21427;-73
2020/12/30 05:54:56;;;;;;;8.93;3.17;;;0.60;99.90;;;;;;1960298;71;21461;-73
2020/12/30 05:57:23;;;;;;;3.80;2.72;;;0.70;99.90;;;;;;1952244;71;21075;-74
2020/12/30 05:59:49;;;;;;;3.10;2.50;;;0.70;99.90;;;;;;1976298;70;21115;-73
2020/12/30 06:02:15;;;;;;;2.77;2.42;;;0.80;99.90;;;;;;1951735;71;21156;-73
2020/12/30 06:04:41;;;;;;;2.98;2.52;;;0.80;99.90;;;;;;1965307;70;21478;-72
2020/12/30 06:07:07;;;;;;;7.70;2.75;;;0.80;99.90;;;;;;1963292;72;21074;-72
2020/12/30 06:09:33;;;;;;;4.65;3.15;;;0.80;99.90;;;;;;1967843;71;21060;-74
2020/12/30 06:12:00;;;;;;;4.78;2.92;;;1.00;99.90;;;;;;1960350;71;21075;-73
2020/12/30 06:14:26;;;;;;;4.40;2.58;;;0.90;99.90;;;;;;1956418;72;21058;-74
2020/12/30 06:16:52;;;;;;;4.45;2.45;;;0.90;99.90;;;;;;1956361;71;21043;-75
2020/12/30 06:19:18;;;;;;;3.62;2.80;;;0.90;99.90;;;;;;1967753;71;21054;-75
2020/12/30 06:21:44;;;;;;;3.35;2.30;;;0.80;99.90;;;;;;1950526;72;21078;-73
2020/12/30 06:24:10;;;;;;;6.47;2.87;;;0.80;99.90;;;;;;1952223;71;21067;-74
2020/12/30 06:26:36;;;;;;;3.20;2.70;;;0.80;99.90;;;;;;1947355;71;21071;-74
2020/12/30 06:29:02;;;;;;;4.83;3.05;;;0.80;99.90;;;;;;1952169;71;21081;-74
2020/12/30 06:31:29;;;;;;;4.95;2.52;;;0.70;99.90;;;;;;1962058;71;21156;-74
2020/12/30 06:33:55;;;;;;;4.60;2.30;;;0.70;99.90;;;;;;1956075;70;21417;-73
2020/12/30 06:36:21;;;;;;;3.02;2.45;;;0.70;99.90;;;;;;1965073;71;21466;-74
2020/12/30 06:38:47;;;;;;;7.05;2.60;;;0.80;99.90;;;;;;1968516;71;21468;-73
2020/12/30 06:41:13;;;;;;;2.92;2.52;;;0.80;99.90;;;;;;1949466;71;21149;-73
2020/12/30 06:43:39;;;;;;;5.00;2.30;;;0.80;99.90;;;;;;1970983;71;21054;-74
2020/12/30 06:46:05;;;;;;;11.73;2.70;;;0.70;99.90;;;;;;1961850;70;21172;-74
2020/12/30 06:48:31;;;;;;;5.33;2.60;;;0.70;99.90;;;;;;1967350;71;21054;-73
2020/12/30 06:50:58;;;;;;;4.35;2.45;;;0.80;99.90;;;;;;1960445;71;21216;-73
2020/12/30 06:53:24;;;;;;;3.45;2.60;;;0.60;99.90;;;;;;1959454;72;21064;-74
2020/12/30 06:55:50;;;;;;;5.28;2.80;;;0.60;99.90;;;;;;1948668;71;21074;-75
2020/12/30 06:58:16;;;;;;;3.17;2.25;;;0.70;99.90;;;;;;1948258;71;21110;-75
2020/12/30 07:00:42;;;;;;;5.60;2.62;;;0.80;99.90;;;;;;1960699;70;21042;-74
2020/12/30 07:03:08;;;;;;;2.45;1.87;;;0.80;99.90;;;;;;1964597;70;21066;-74
2020/12/30 07:05:34;;;;;;;3.72;2.05;;;0.80;99.90;;;;;;1966236;70;21066;-75
2020/12/30 07:08:00;;;;;;;3.40;2.02;;;0.80;99.90;;;;;;1948986;70;21062;-74
2020/12/30 07:10:27;;;;;;;2.62;1.70;;;0.90;99.90;;;;;;1939584;70;21071;-74
2020/12/30 07:12:53;;;;;;;1.85;1.62;;;1.00;99.90;;;;;;1958546;71;21074;-75
2020/12/30 07:15:19;;;;;;;3.15;1.92;;;1.10;99.90;;;;;;1949344;70;21062;-76
2020/12/30 07:17:45;;;;;;;5.55;1.80;;;1.10;99.90;;;;;;1950431;71;21040;-74
2020/12/30 07:20:11;;;;;;;2.22;1.52;;;1.20;99.90;;;;;;1943317;71;21479;-75
2020/12/30 07:22:37;;;;;;;2.90;1.80;;;1.30;99.90;;;;;;1956807;72;21453;-73
2020/12/30 07:25:03;;;;;;;2.62;1.40;;;1.30;99.90;;;;;;1946606;71;21490;-73
2020/12/30 07:27:30;;;;;;;2.15;1.47;;;1.40;99.90;;;;;;1962141;71;21054;-75
2020/12/30 07:29:56;;;;;;;1.40;1.30;;;1.40;99.90;;;;;;1934693;71;21132;-77
2020/12/30 07:32:22;;;;;;;1.50;1.40;;;1.50;99.90;;;;;;1970711;72;21062;-76
2020/12/30 07:34:48;;;;;;;2.12;1.40;;;1.60;99.90;;;;;;1962789;70;21520;-74
2020/12/30 07:37:14;;;;;;;4.75;2.27;;;1.70;99.90;;;;;;1961443;71;21471;-75
2020/12/30 07:39:40;;;;;;;4.10;1.45;;;1.60;99.90;;;;;;1959787;70;21071;-76
2020/12/30 07:42:06;;;;;;;2.42;1.72;;;1.80;99.90;;;;;;1949897;72;21132;-76
2020/12/30 07:44:32;;;;;;;4.47;1.82;;;1.80;99.90;;;;;;1955298;71;21075;-74
2020/12/30 07:46:59;;;;;;;2.30;1.37;;;1.90;99.90;;;;;;1961262;72;21035;-75
2020/12/30 07:49:25;;;;;;;2.37;1.02;;;1.90;99.90;;;;;;1957399;70;21057;-74
2020/12/30 07:51:51;;;;;;;1.30;1.15;;;2.00;99.90;;;;;;1972935;71;21552;-79
2020/12/30 07:54:17;;;;;;;3.20;1.92;;;2.10;99.90;;;;;;1955811;72;21138;-76
2020/12/30 07:56:43;;;;;;;1.77;1.20;;;2.10;99.90;;;;;;1933129;71;21197;-74
2020/12/30 07:59:09;;;;;;;5.47;1.80;;;2.20;99.90;;;;;;1958290;70;21074;-74
2020/12/30 08:01:35;;;;;;;3.12;1.87;;;2.20;99.90;;;;;;1954452;71;21053;-75
2020/12/30 08:04:01;;;;;;;2.77;1.37;;;2.20;99.90;;;;;;1949012;70;21126;-78
2020/12/30 08:06:28;;;;;;;4.28;2.00;;;2.20;99.90;;;;;;1952033;70;21067;-76
2020/12/30 08:08:54;;;;;;;2.70;1.95;;;2.20;99.90;;;;;;1944267;70;21036;-76
2020/12/30 08:11:20;;;;;;;10.53;1.65;;;2.40;99.90;;;;;;1962027;71;21053;-76
2020/12/30 08:13:47;;;;;;;3.65;2.15;;;2.40;99.90;;;;;;1966283;70;21136;-77
2020/12/30 08:16:13;;;;;;;4.30;2.20;;;2.50;99.90;;;;;;1948276;71;21062;-78
2020/12/30 08:18:39;;;;;;;5.40;2.27;;;2.40;99.90;;;;;;1943143;72;21143;-78
2020/12/30 08:21:05;;;;;;;9.65;2.72;;;2.50;99.90;;;;;;1955028;70;21185;-79
2020/12/30 08:23:31;;;;;;;2.98;1.92;;;2.50;99.90;;;;;;1965228;71;21066;-79
2020/12/30 08:25:57;;;;;;;7.97;2.12;;;2.60;99.90;;;;;;1964650;70;21059;-79
2020/12/30 08:28:23;;;;;;;3.15;2.10;;;2.60;99.90;;;;;;1955781;71;21036;-77
2020/12/30 08:30:50;;;;;;;2.10;1.90;;;2.50;99.90;;;;;;1975926;71;21027;-78
2020/12/30 08:33:16;;;;;;;3.80;2.22;;;2.50;99.90;;;;;;1961282;71;21047;-77
2020/12/30 08:35:42;;;;;;;7.72;2.33;;;2.50;99.90;;;;;;1964947;70;21067;-78
2020/12/30 08:38:08;;;;;;;6.85;2.15;;;2.50;99.90;;;;;;1957350;71;21062;-78
2020/12/30 08:40:35;;;;;;;7.00;2.65;;;2.40;99.90;;;;;;1953601;71;21128;-78
2020/12/30 08:43:01;;;;;;;7.00;2.98;;;2.50;99.90;;;;;;1969355;70;21067;-78
2020/12/30 08:45:27;;;;;;;2.85;1.90;;;2.60;99.90;;;;;;1959521;70;21054;-77
2020/12/30 08:47:53;;;;;;;7.58;1.98;;;2.80;99.90;;;;;;1953042;70;21515;-78
2020/12/30 08:50:19;;;;;;;4.72;2.00;;;2.90;99.90;;;;;;1960157;71;21568;-77
2020/12/30 08:52:45;;;;;;;2.08;1.42;;;3.00;99.90;;;;;;1959661;71;21071;-78
2020/12/30 08:55:11;;;;;;;6.65;1.17;;;3.20;99.90;;;;;;1947686;71;21028;-77
2020/12/30 08:57:37;;;;;;;2.05;1.27;;;3.20;99.90;;;;;;1936212;71;21056;-77
2020/12/30 09:00:04;;;;;;;1.32;1.15;;;3.20;99.90;;;;;;1951790;70;21126;-78
2020/12/30 09:02:30;;;;;;;3.02;1.17;;;3.20;99.90;;;;;;1960876;71;21140;-77
2020/12/30 09:04:57;;;;;;;5.37;1.50;;;3.20;99.90;;;;;;1959148;72;21063;-77
2020/12/30 09:07:23;;;;;;;5.28;1.50;;;3.20;99.90;;;;;;1958019;70;21135;-78
2020/12/30 09:09:49;;;;;;;2.47;1.42;;;3.30;99.90;;;;;;1954380;70;21136;-79
2020/12/30 09:12:15;;;;;;;3.27;1.62;;;3.30;99.90;;;;;;1962477;70;21071;-77
2020/12/30 09:14:41;;;;;;;3.55;1.30;;;3.30;99.90;;;;;;1956624;70;21125;-76
2020/12/30 09:17:11;;;;;;;3.45;1.72;;;3.30;99.90;;;;;;1962791;70;21549;-76
2020/12/30 09:19:35;;;;;;;1.87;1.30;;;3.40;99.90;;;;;;1963781;71;21219;-78
2020/12/30 09:22:01;;;;;;;1.30;1.10;;;3.40;99.90;;;;;;1964479;72;21031;-80
2020/12/30 09:24:27;;;;;;;2.83;1.15;;;3.60;99.90;;;;;;1953781;71;21145;-76
2020/12/30 09:26:54;;;;;;;7.85;1.47;;;3.60;99.90;;;;;;1953823;70;22098;-75
2020/12/30 09:29:20;;;;;;;1.57;1.45;;;3.50;99.90;;;;;;1961958;71;21501;-76
2020/12/30 09:31:46;;;;;;;1.25;1.10;;;3.60;99.90;;;;;;1963408;70;21054;-76
2020/12/30 09:34:12;;;;;;;1.82;1.35;;;3.60;99.90;;;;;;1963594;71;21050;-75
2020/12/30 09:36:38;;;;;;;3.35;1.35;;;3.60;99.90;;;;;;1954543;71;21061;-75
2020/12/30 09:39:04;;;;;;;2.12;1.50;;;3.70;99.90;;;;;;1962747;71;21048;-75
2020/12/30 09:41:30;;;;;;;3.33;1.60;;;3.60;99.90;;;;;;1968939;70;21031;-75
2020/12/30 09:43:57;;;;;;;6.17;2.35;;;3.50;99.90;;;;;;1950182;71;21104;-75
2020/12/30 09:46:23;;;;;;;3.33;1.65;;;3.50;99.90;;;;;;1945870;71;21040;-74
2020/12/30 09:48:49;;;;;;;3.62;1.50;;;3.60;99.90;;;;;;1939213;70;21089;-75
2020/12/30 09:51:17;;;;;;;3.55;1.62;;;3.50;99.90;;;;;;1949361;70;21035;-75
2020/12/30 09:53:44;;;;;;;1.60;1.50;;;3.50;99.90;;;;;;1956103;70;21127;-73
2020/12/30 09:56:10;;;;;;;2.75;1.65;;;3.60;99.90;;;;;;1968147;70;21469;-72
2020/12/30 09:58:36;;;;;;;4.33;1.70;;;3.60;99.90;;;;;;1960806;71;21564;-72
2020/12/30 10:01:02;;;;;;;3.22;1.90;;;3.40;99.90;;;;;;1976903;71;21059;-72
2020/12/30 10:03:29;;;;;;;3.65;1.92;;;3.50;99.90;;;;;;1970490;70;21063;-74
2020/12/30 10:05:55;;;;;;;2.87;1.35;;;3.60;99.90;;;;;;1956233;71;21071;-73
2020/12/30 10:08:21;;;;;;;2.70;1.50;;;3.60;99.90;;;;;;1932054;71;21070;-74
2020/12/30 10:10:47;;;;;;;1.70;1.30;;;3.50;99.90;;;;;;1945899;70;21039;-74
2020/12/30 10:13:13;;;;;;;2.42;1.12;;;3.60;99.90;;;;;;1930408;71;21050;-73
2020/12/30 10:15:39;;;;;;;2.62;1.47;;;3.70;99.90;;;;;;1952520;70;21087;-74
2020/12/30 10:18:05;;;;;;;2.20;1.27;;;3.60;99.90;;;;;;1957062;71;21478;-73
2020/12/30 10:20:31;;;;;;;2.05;1.72;;;3.80;99.90;;;;;;1957558;70;21443;-73
2020/12/30 10:22:58;;;;;;;2.05;1.57;;;3.90;99.90;;;;;;1955392;71;21548;-74
2020/12/30 10:25:24;;;;;;;1.98;1.50;;;4.00;99.90;;;;;;1975374;70;21121;-75
2020/12/30 10:27:50;;;;;;;4.58;1.57;;;3.80;99.90;;;;;;1950464;71;21071;-75
2020/12/30 10:30:16;;;;;;;3.45;1.40;;;3.90;99.90;;;;;;1949005;71;21075;-75
2020/12/30 10:32:42;;;;;;;1.70;1.40;;;3.80;99.90;;;;;;1959583;70;21071;-77
2020/12/30 10:35:10;;;;;;;5.40;1.37;;;3.90;99.90;;;;;;1979803;71;21086;-78
2020/12/30 10:37:36;;;;;;;3.40;1.60;;;3.90;99.90;;;;;;1958279;70;21247;-77
2020/12/30 10:40:02;;;;;;;4.80;2.25;;;4.10;99.90;;;;;;1963595;71;21142;-75
2020/12/30 10:42:29;;;;;;;1.57;1.47;;;4.20;99.90;;;;;;1963964;70;21140;-77
2020/12/30 10:44:55;;;;;;;1.67;1.52;;;4.30;99.90;;;;;;1965876;70;21063;-76
2020/12/30 10:47:22;;;;;;;3.27;1.77;;;4.50;99.90;;;;;;1935660;71;21082;-78
2020/12/30 10:49:48;;;;;;;6.37;1.50;;;4.50;99.90;;;;;;1955997;71;21067;-77
2020/12/30 10:52:14;;;;;;;3.15;1.98;;;5.00;99.90;;;;;;1959101;71;21058;-77
2020/12/30 10:54:45;;;;;;;1.35;1.22;;;5.20;99.90;;;;;;1958178;72;21078;-77
2020/12/30 10:57:08;;;;;;;2.22;1.65;;;5.60;99.90;;;;;;1966114;70;21054;-78
2020/12/30 10:59:35;;;;;;;3.08;1.75;;;5.00;99.90;;;;;;1971037;71;21078;-78
2020/12/30 11:02:02;;;;;;;1.50;1.30;;;5.40;99.90;;;;;;1958871;70;21058;-77
2020/12/30 11:04:29;;;;;;;2.98;1.57;;;5.40;99.90;;;;;;1958981;72;21166;-73
2020/12/30 11:06:55;;;;;;;9.30;1.60;;;5.10;99.90;;;;;;1948230;70;21079;-76
2020/12/30 11:09:21;;;;;;;3.15;1.45;;;5.10;99.90;;;;;;1961031;70;21051;-77
2020/12/30 11:11:47;;;;;;;3.70;1.70;;;5.20;99.90;;;;;;1961876;70;21115;-76
2020/12/30 11:14:13;;;;;;;3.33;1.32;;;5.50;99.90;;;;;;1947746;71;21474;-78
2020/12/30 11:16:40;;;;;;;1.65;1.40;;;5.50;99.90;;;;;;1965602;72;21478;-77
2020/12/30 11:19:06;;;;;;;2.87;1.45;;;5.60;99.90;;;;;;1961314;72;21137;-75
2020/12/30 11:21:32;;;;;;;3.25;1.30;;;5.60;99.90;;;;;;1970781;70;21071;-74
2020/12/30 11:23:58;;;;;;;3.35;1.75;;;5.80;99.90;;;;;;1973341;70;21047;-76
2020/12/30 11:26:24;;;;;;;3.62;1.55;;;5.70;99.90;;;;;;1965581;71;21143;-74
2020/12/30 11:28:50;;;;;;;5.33;1.55;;;5.90;99.90;;;;;;1964695;70;21070;-74
2020/12/30 11:31:16;;;;;;;2.92;1.40;;;5.90;99.90;;;;;;1953225;71;21174;-76
2020/12/30 11:33:42;;;;;;;2.12;1.47;;;5.80;99.90;;;;;;1973709;71;21131;-74
2020/12/30 11:36:09;;;;;;;4.40;1.42;;;5.80;99.90;;;;;;1951616;71;21133;-75
2020/12/30 11:38:37;;;;;;;2.40;1.47;;;5.80;99.90;;;;;;1963149;70;21027;-74
2020/12/30 11:41:03;;;;;;;2.27;0.98;;;5.70;99.90;;;;;;1955729;71;22681;-74
2020/12/30 11:43:29;;;;;;;4.12;1.22;;;5.60;99.90;;;;;;1947849;72;21185;-75
2020/12/30 11:45:55;;;;;;;2.35;1.42;;;5.80;99.90;;;;;;1954889;70;21128;-76
2020/12/30 11:48:21;;;;;;;5.22;1.50;;;5.40;99.90;;;;;;1967461;71;21077;-76
2020/12/30 11:50:47;;;;;;;4.03;1.87;;;5.40;99.90;;;;;;1967266;71;21621;-75
2020/12/30 11:53:13;;;;;;;6.20;1.57;;;5.50;99.90;;;;;;1957144;71;21549;-76
2020/12/30 11:55:39;;;;;;;1.30;1.20;;;5.40;99.90;;;;;;1960384;72;21592;-75
2020/12/30 11:58:05;;;;;;;3.58;1.60;;;5.70;99.90;;;;;;1958116;72;21144;-75
2020/12/30 12:00:32;;;;;;;5.10;1.30;;;5.60;99.90;;;;;;1947388;71;21120;-76
2020/12/30 12:02:58;;;;;;;2.45;1.60;;;5.50;99.90;;;;;;1944833;71;21067;-74
2020/12/30 12:05:24;;;;;;;3.70;1.37;;;5.50;99.90;;;;;;1959249;71;21086;-75
2020/12/30 12:07:51;;;;;;;2.08;1.05;;;5.60;99.90;;;;;;1978773;70;21078;-76
2020/12/30 12:10:19;;;;;;;5.83;1.40;;;5.60;99.90;;;;;;1964923;70;21472;-76
2020/12/30 12:12:45;;;;;;;1.50;0.95;;;5.70;99.90;;;;;;1970594;70;21039;-76
2020/12/30 12:15:11;;;;;;;1.98;1.10;;;5.80;99.90;;;;;;1957874;71;21144;-76
2020/12/30 12:17:37;;;;;;;2.37;1.27;;;5.90;99.90;;;;;;1949530;71;21136;-76
2020/12/30 12:20:03;;;;;;;3.60;1.15;;;6.10;99.90;;;;;;1937301;72;21148;-76
2020/12/30 12:22:29;;;;;;;2.58;0.98;;;6.10;99.90;;;;;;1956252;70;21105;-76
2020/12/30 12:24:56;;;;;;;1.72;0.85;;;6.10;99.90;;;;;;1988422;71;21078;-77
2020/12/30 12:27:22;;;;;;;2.37;0.90;;;5.90;99.90;;;;;;1967546;71;21022;-75
2020/12/30 12:29:48;;;;;;;0.88;0.57;;;6.00;99.90;;;;;;1962226;71;21124;-74
2020/12/30 12:32:15;;;;;;;1.77;0.90;;;5.80;99.90;;;;;;1949937;71;21477;-74
2020/12/30 12:34:41;;;;;;;0.60;0.60;;;5.70;99.90;;;;;;1981204;71;21075;-76
2020/12/30 12:37:07;;;;;;;3.62;0.90;;;5.70;99.90;;;;;;1978318;70;21173;-76
2020/12/30 12:39:33;;;;;;;1.37;0.90;;;5.80;99.90;;;;;;1954698;71;21121;-75
2020/12/30 12:41:59;;;;;;;1.95;0.90;;;5.90;99.90;;;;;;1959337;71;21074;-74
2020/12/30 12:44:26;;;;;;;0.30;0.30;;;5.90;99.90;;;;;;1953460;72;21266;-75
2020/12/30 12:46:55;;;;;;;1.22;0.60;;;5.80;99.90;;;;;;1963977;70;21067;-76
2020/12/30 12:49:21;;;;;;;1.35;0.72;;;5.90;99.90;;;;;;1958335;71;21095;-75
2020/12/30 12:51:47;;;;;;;9.48;0.80;;;5.90;99.90;;;;;;1946945;72;21082;-76